Time;durP1;ratioP1;P1;durP2;ratioP2;P2;SDS_P1;SDS_P2;PMS_P1;PMS_P2;Temp;Humidity;BMP_temperature;BMP_pressure;BME280_temperature;BME280_humidity;BME280_pressure;Samples;Min_cycle;Max_cycle;Signal;HPM_P1;HPM_P2
2021/01/31 00:02:16;;;;;;;13.07;6.07;;;;;;;1.73;79.64;95530.59;5031626;28;20024;-79
2021/01/31 00:04:46;;;;;;;11.68;6.28;;;;;;;1.56;80.20;95540.00;5015586;28;20126;-81
2021/01/31 00:07:12;;;;;;;15.00;6.78;;;;;;;1.92;79.38;95532.97;5028938;28;20024;-80
2021/01/31 00:09:38;;;;;;;14.00;6.88;;;;;;;1.81;79.82;95547.41;5051190;28;20130;-80
2021/01/31 00:12:04;;;;;;;14.63;7.45;;;;;;;2.05;78.84;95548.88;5066844;28;20037;-79
2021/01/31 00:14:30;;;;;;;14.35;6.95;;;;;;;1.75;79.59;95533.72;5048881;28;20032;-78
2021/01/31 00:16:55;;;;;;;15.35;7.28;;;;;;;2.22;78.43;95543.75;5042982;28;20040;-80
2021/01/31 00:19:21;;;;;;;15.40;7.43;;;;;;;1.94;79.36;95552.28;5044816;28;20390;-80
2021/01/31 00:21:46;;;;;;;15.00;7.68;;;;;;;1.82;80.07;95551.53;5021157;28;20423;-79
2021/01/31 00:24:12;;;;;;;15.80;7.40;;;;;;;1.72;79.87;95552.13;5062638;28;20109;-79
2021/01/31 00:26:38;;;;;;;17.92;8.50;;;;;;;1.81;79.15;95553.31;5048159;28;20025;-80
2021/01/31 00:29:04;;;;;;;16.33;7.88;;;;;;;2.10;78.46;95555.88;5023856;28;20044;-81
2021/01/31 00:31:30;;;;;;;17.45;8.13;;;;;;;2.22;78.14;95553.25;5067014;28;20094;-80
2021/01/31 00:33:56;;;;;;;17.92;8.63;;;;;;;1.87;79.74;95569.59;5030883;28;20060;-80
2021/01/31 00:36:22;;;;;;;17.45;8.10;;;;;;;1.85;79.22;95569.03;5044826;28;20430;-78
2021/01/31 00:38:48;;;;;;;18.40;8.55;;;;;;;1.92;79.78;95559.44;5031179;28;20187;-80
2021/01/31 00:41:14;;;;;;;19.80;8.82;;;;;;;2.30;78.67;95565.72;5059634;28;20066;-79
2021/01/31 00:43:39;;;;;;;18.42;8.88;;;;;;;2.40;78.04;95567.69;5034802;28;20090;-80
2021/01/31 00:46:05;;;;;;;17.75;7.70;;;;;;;2.38;77.85;95575.63;5065895;28;20048;-79
2021/01/31 00:48:31;;;;;;;17.45;8.20;;;;;;;2.07;78.43;95564.03;5065012;28;20093;-79
2021/01/31 00:50:57;;;;;;;16.98;8.20;;;;;;;2.26;78.20;95567.19;5012047;28;20024;-79
2021/01/31 00:53:24;;;;;;;17.98;8.20;;;;;;;2.29;78.47;95559.03;5066451;28;20041;-79
2021/01/31 00:55:50;;;;;;;17.05;8.23;;;;;;;2.31;78.22;95569.06;5044179;28;20059;-80
2021/01/31 00:58:15;;;;;;;17.45;7.95;;;;;;;2.30;78.19;95570.88;5065972;28;20064;-79
2021/01/31 01:00:41;;;;;;;19.25;8.68;;;;;;;2.23;77.57;95572.81;5033873;28;20048;-79
2021/01/31 01:03:08;;;;;;;16.45;7.97;;;;;;;2.43;77.97;95572.34;5049655;28;20094;-79
2021/01/31 01:05:34;;;;;;;22.25;8.98;;;;;;;2.20;78.44;95575.84;5034026;28;20028;-78
2021/01/31 01:08:00;;;;;;;20.33;9.93;;;;;;;2.24;78.28;95575.16;5033016;28;20021;-79
2021/01/31 01:10:31;;;;;;;22.85;10.25;;;;;;;2.00;78.41;95577.00;5033750;28;20021;-79
2021/01/31 01:12:57;;;;;;;22.67;9.32;;;;;;;2.28;78.00;95588.31;5033737;28;20082;-79
2021/01/31 01:15:26;;;;;;;25.65;10.57;;;;;;;2.02;78.84;95592.19;5048624;28;20068;-79
2021/01/31 01:18:01;;;;;;;27.17;9.85;;;;;;;2.06;78.92;95586.38;5049921;28;20147;-78
2021/01/31 01:20:27;;;;;;;25.60;10.27;;;;;;;1.68;79.74;95590.28;5029136;28;20096;-78
2021/01/31 01:22:53;;;;;;;22.80;9.52;;;;;;;1.80;80.14;95602.28;5034279;28;20032;-79
2021/01/31 01:25:20;;;;;;;27.08;10.07;;;;;;;2.02;79.27;95598.13;5068780;28;20024;-78
2021/01/31 01:27:45;;;;;;;31.85;12.25;;;;;;;2.00;79.64;95600.13;5055522;28;20390;-79
2021/01/31 01:30:15;;;;;;;31.67;10.95;;;;;;;1.69;80.10;95603.88;5034071;28;20116;-79
2021/01/31 01:32:40;;;;;;;35.72;11.80;;;;;;;1.64;80.41;95594.28;5050525;28;20490;-80
2021/01/31 01:35:07;;;;;;;40.75;11.00;;;;;;;1.73;79.76;95617.03;5051383;28;20052;-79
2021/01/31 01:37:34;;;;;;;41.97;13.35;;;;;;;1.57;80.66;95603.91;5033826;28;20033;-78
2021/01/31 01:40:02;;;;;;;28.67;11.25;;;;;;;1.69;80.29;95609.03;5044102;28;20090;-79
2021/01/31 01:42:28;;;;;;;33.83;11.90;;;;;;;1.73;80.76;95605.00;5050592;28;20082;-79
2021/01/31 01:44:54;;;;;;;31.15;11.85;;;;;;;1.39;81.43;95615.09;5051012;28;20111;-78
2021/01/31 01:47:23;;;;;;;35.15;14.02;;;;;;;1.37;80.71;95606.03;5071187;28;20036;-78
2021/01/31 01:49:50;;;;;;;48.55;14.57;;;;;;;1.25;82.21;95609.41;5037688;28;20029;-81
2021/01/31 01:52:45;;;;;;;34.45;12.82;;;;;;;1.39;81.51;95606.59;5024689;28;20028;-79
2021/01/31 01:55:13;;;;;;;37.63;12.75;;;;;;;1.66;79.60;95605.13;5033735;28;20094;-79
2021/01/31 01:57:49;;;;;;;38.03;14.27;;;;;;;1.49;80.50;95607.59;5037004;28;20511;-79
2021/01/31 02:00:15;;;;;;;61.38;13.30;;;;;;;1.82;80.12;95620.84;5024482;28;20024;-79
2021/01/31 02:02:45;;;;;;;42.80;12.55;;;;;;;1.41;80.59;95604.59;5062893;22;20084;-81
2021/01/31 02:05:14;;;;;;;33.50;12.35;;;;;;;1.60;80.79;95602.69;5014155;28;20030;-80
2021/01/31 02:07:42;;;;;;;36.40;12.35;;;;;;;2.01;79.22;95604.25;5042425;28;20040;-79
2021/01/31 02:10:08;;;;;;;32.78;12.93;;;;;;;1.84;79.56;95593.91;5020028;28;20040;-80
2021/01/31 02:12:37;;;;;;;36.25;12.40;;;;;;;1.37;80.06;95585.53;5048171;28;20044;-80
2021/01/31 02:15:05;;;;;;;39.83;14.27;;;;;;;1.38;80.99;95595.56;5020456;28;20439;-81
2021/01/31 02:17:48;;;;;;;33.25;12.70;;;;;;;1.45;80.35;95598.78;5033637;28;20026;-80
2021/01/31 02:20:32;;;;;;;36.17;12.48;;;;;;;1.50;80.46;95596.31;5041321;28;20022;-80
2021/01/31 02:23:13;;;;;;;39.28;13.75;;;;;;;1.43;80.27;95594.91;5017552;28;20172;-80
2021/01/31 02:25:52;;;;;;;31.92;12.20;;;;;;;1.65;79.87;95593.28;5032882;28;20033;-80
2021/01/31 02:28:33;;;;;;;35.83;13.65;;;;;;;1.74;79.13;95591.16;5031123;28;20060;-81
2021/01/31 02:31:07;;;;;;;35.58;12.88;;;;;;;1.47;79.82;95598.56;5046153;28;20078;-81
2021/01/31 02:33:52;;;;;;;36.08;12.95;;;;;;;1.29;80.69;95582.31;5040707;28;20033;-80
2021/01/31 02:36:41;;;;;;;30.13;12.73;;;;;;;1.45;79.90;95600.59;5023682;28;20040;-81
2021/01/31 02:39:33;;;;;;;32.45;12.48;;;;;;;1.53;80.00;95607.16;5036989;28;20049;-81
2021/01/31 02:42:06;;;;;;;27.92;11.82;;;;;;;1.98;78.32;95601.38;5039924;28;20500;-80
2021/01/31 02:44:35;;;;;;;29.77;11.90;;;;;;;1.91;78.85;95614.31;5039314;28;20469;-81
2021/01/31 02:47:07;;;;;;;36.28;13.65;;;;;;;1.76;79.06;95614.78;5041086;28;20030;-81
2021/01/31 02:49:39;;;;;;;31.13;12.32;;;;;;;1.42;79.89;95612.09;5028306;28;20371;-81
2021/01/31 02:52:21;;;;;;;29.05;12.13;;;;;;;1.66;79.30;95612.03;5013204;28;20036;-81
2021/01/31 02:54:54;;;;;;;28.33;12.93;;;;;;;1.38;79.94;95617.88;5045747;28;20135;-81
2021/01/31 02:57:28;;;;;;;31.75;12.93;;;;;;;1.75;79.32;95620.94;5046468;28;20021;-80
2021/01/31 03:00:19;;;;;;;31.02;13.00;;;;;;;1.71;79.26;95624.19;5046759;28;20029;-81
2021/01/31 03:03:02;;;;;;;28.63;11.82;;;;;;;1.55;79.40;95605.91;5048901;28;20423;-81
2021/01/31 03:05:38;;;;;;;27.92;13.05;;;;;;;1.83;78.94;95622.38;5059281;28;20557;-80
2021/01/31 03:08:18;;;;;;;29.67;11.93;;;;;;;1.33;79.74;95613.41;5049200;28;20032;-81
2021/01/31 03:11:08;;;;;;;31.02;12.98;;;;;;;1.59;78.95;95614.72;5060375;28;20040;-82
2021/01/31 03:13:53;;;;;;;24.33;10.25;;;;;;;0.96;81.01;95617.97;5066351;28;20028;-82
2021/01/31 03:16:42;;;;;;;24.10;10.25;;;;;;;1.27;80.47;95625.34;5051443;28;20087;-80
2021/01/31 03:19:15;;;;;;;24.48;10.68;;;;;;;1.12;80.34;95630.13;5054600;28;20384;-81
2021/01/31 03:21:46;;;;;;;25.55;11.10;;;;;;;1.36;80.34;95630.16;5045463;28;20773;-80
2021/01/31 03:24:27;;;;;;;29.20;11.70;;;;;;;1.49;79.71;95628.13;5065690;28;20907;-81
2021/01/31 03:27:03;;;;;;;25.35;11.38;;;;;;;1.01;80.88;95630.91;5043786;28;20035;-81
2021/01/31 03:29:29;;;;;;;22.13;10.73;;;;;;;1.14;80.74;95625.56;5055295;28;20082;-81
2021/01/31 03:32:01;;;;;;;28.10;12.40;;;;;;;1.08;80.71;95611.88;5064718;28;20112;-81
2021/01/31 03:34:32;;;;;;;23.13;10.27;;;;;;;1.09;80.92;95633.13;5059452;28;20025;-81
2021/01/31 03:37:02;;;;;;;25.13;10.77;;;;;;;1.55;79.87;95636.69;5061883;28;20055;-81
2021/01/31 03:39:34;;;;;;;27.15;11.48;;;;;;;1.69;78.99;95642.38;5069813;28;20031;-81
2021/01/31 03:42:06;;;;;;;23.85;10.45;;;;;;;1.97;78.58;95636.53;5053549;28;20048;-80
2021/01/31 03:44:33;;;;;;;25.67;11.50;;;;;;;2.09;77.90;95633.13;5030138;28;20494;-81
2021/01/31 03:47:02;;;;;;;24.88;10.70;;;;;;;1.90;78.05;95629.94;5058833;28;20029;-80
2021/01/31 03:49:36;;;;;;;25.98;11.15;;;;;;;1.79;77.94;95626.41;5068550;28;20472;-81
2021/01/31 03:52:02;;;;;;;22.92;10.55;;;;;;;1.77;78.47;95618.16;5069937;28;20064;-80
2021/01/31 03:54:28;;;;;;;22.67;10.90;;;;;;;1.95;77.49;95620.53;5054211;28;20051;-82
2021/01/31 03:57:01;;;;;;;21.52;9.82;;;;;;;1.58;78.45;95620.88;5059740;28;20151;-81
2021/01/31 03:59:33;;;;;;;22.40;10.43;;;;;;;1.84;78.04;95623.94;5049657;28;20028;-80
2021/01/31 04:01:59;;;;;;;22.75;10.27;;;;;;;1.53;78.45;95623.31;5034012;28;20098;-82
2021/01/31 04:04:35;;;;;;;20.73;10.02;;;;;;;1.60;78.25;95629.13;5032232;28;20623;-81
2021/01/31 04:07:04;;;;;;;22.85;10.30;;;;;;;1.90;78.13;95633.28;5046493;28;20049;-81
2021/01/31 04:09:35;;;;;;;19.88;9.93;;;;;;;1.92;77.85;95626.16;5058585;28;20028;-81
2021/01/31 04:12:12;;;;;;;22.35;10.23;;;;;;;1.72;77.72;95621.41;5042354;28;20031;-81
2021/01/31 04:14:57;;;;;;;22.50;10.77;;;;;;;1.66;78.49;95617.97;5051086;28;20036;-80
2021/01/31 04:17:23;;;;;;;22.20;10.40;;;;;;;1.87;77.83;95614.00;5043826;28;20025;-81
2021/01/31 04:19:49;;;;;;;22.60;10.25;;;;;;;2.04;77.45;95624.34;5065431;28;20431;-81
2021/01/31 04:22:15;;;;;;;22.08;9.63;;;;;;;2.05;77.62;95631.00;5068278;28;20032;-81
2021/01/31 04:24:41;;;;;;;21.08;9.73;;;;;;;1.98;77.64;95617.53;5062079;28;20415;-80
2021/01/31 04:27:07;;;;;;;24.98;10.70;;;;;;;1.95;77.81;95630.03;5065513;28;20147;-81
2021/01/31 04:29:34;;;;;;;23.40;10.88;;;;;;;1.82;78.23;95625.97;5041892;28;20068;-81
2021/01/31 04:32:01;;;;;;;20.35;10.30;;;;;;;1.73;78.15;95625.53;5026000;28;20025;-81
2021/01/31 04:34:27;;;;;;;23.65;10.02;;;;;;;1.43;79.35;95617.97;5063860;28;20028;-81
2021/01/31 04:36:53;;;;;;;26.20;10.85;;;;;;;1.66;78.99;95632.56;5064107;28;20123;-81
2021/01/31 04:39:22;;;;;;;23.48;10.70;;;;;;;1.64;79.20;95619.94;5054537;28;20048;-81
2021/01/31 04:41:48;;;;;;;22.17;10.63;;;;;;;1.92;78.23;95633.06;5025562;28;20955;-81
2021/01/31 04:44:17;;;;;;;21.42;10.48;;;;;;;1.56;78.18;95633.16;5039611;28;20458;-81
2021/01/31 04:46:50;;;;;;;21.63;10.13;;;;;;;1.41;78.93;95641.28;5065724;28;20040;-81
2021/01/31 04:49:43;;;;;;;23.60;10.50;;;;;;;1.44;79.08;95642.59;5056004;28;20034;-81
2021/01/31 04:52:31;;;;;;;23.67;10.25;;;;;;;1.60;78.59;95641.94;5059931;28;20438;-81
2021/01/31 04:55:15;;;;;;;24.73;10.25;;;;;;;1.99;78.19;95641.44;5069178;28;20115;-81
2021/01/31 04:58:11;;;;;;;24.60;10.98;;;;;;;1.27;79.68;95630.47;5064837;28;20031;-81
2021/01/31 05:00:42;;;;;;;31.02;11.88;;;;;;;1.42;78.95;95624.09;5055931;28;20045;-82
2021/01/31 05:03:08;;;;;;;26.73;11.50;;;;;;;1.66;78.86;95617.97;5070726;28;20055;-81
2021/01/31 05:05:41;;;;;;;29.48;11.45;;;;;;;1.52;78.64;95632.00;5035296;28;20033;-81
2021/01/31 05:08:33;;;;;;;28.77;12.18;;;;;;;1.24;79.33;95640.41;5059570;28;20032;-81
2021/01/31 05:11:04;;;;;;;27.50;11.32;;;;;;;1.51;79.03;95640.72;5045487;28;20049;-81
2021/01/31 05:13:41;;;;;;;28.48;12.15;;;;;;;1.11;79.98;95637.06;5059555;28;20111;-81
2021/01/31 05:16:13;;;;;;;24.80;11.45;;;;;;;1.43;79.38;95644.41;5057840;28;20076;-81
2021/01/31 05:19:01;;;;;;;31.15;13.15;;;;;;;0.80;81.62;95640.66;5037093;28;20028;-81
2021/01/31 05:21:29;;;;;;;34.88;13.90;;;;;;;1.21;80.48;95636.47;5071088;28;20263;-81
2021/01/31 05:23:59;;;;;;;36.08;14.63;;;;;;;1.17;80.42;95629.47;5055708;28;20024;-81
2021/01/31 05:26:25;;;;;;;34.17;13.82;;;;;;;1.43;79.92;95628.25;5067064;28;20024;-81
2021/01/31 05:28:56;;;;;;;33.22;13.60;;;;;;;1.23;79.99;95633.69;5054602;28;20021;-81
2021/01/31 05:31:24;;;;;;;34.33;13.82;;;;;;;1.29;79.44;95643.84;5060552;28;20024;-81
2021/01/31 05:33:56;;;;;;;35.80;14.70;;;;;;;1.33;78.94;95638.28;5049305;28;20040;-81
2021/01/31 05:36:25;;;;;;;37.33;15.60;;;;;;;1.52;78.97;95647.41;5073143;28;20469;-81
2021/01/31 05:38:51;;;;;;;33.33;13.15;;;;;;;1.68;78.58;95641.59;5050705;28;20025;-81
2021/01/31 05:41:32;;;;;;;36.92;15.52;;;;;;;1.50;78.45;95646.84;5072878;28;20020;-81
2021/01/31 05:44:16;;;;;;;35.03;14.85;;;;;;;1.31;79.07;95653.88;5061432;28;20343;-81
2021/01/31 05:46:45;;;;;;;35.95;14.02;;;;;;;1.39;79.16;95663.00;5049398;28;20033;-81
2021/01/31 05:49:33;;;;;;;37.47;15.02;;;;;;;1.17;79.48;95650.75;5064891;28;20033;-81
2021/01/31 05:52:00;;;;;;;37.00;14.95;;;;;;;1.30;79.77;95654.88;5056838;28;20674;-81
2021/01/31 05:54:28;;;;;;;36.25;14.85;;;;;;;1.39;79.02;95658.69;5066717;28;20040;-81
2021/01/31 05:56:54;;;;;;;38.75;14.93;;;;;;;1.59;78.62;95658.31;5070412;28;20090;-81
2021/01/31 05:59:20;;;;;;;42.20;17.05;;;;;;;1.60;79.07;95672.72;5067173;28;20434;-81
2021/01/31 06:01:59;;;;;;;41.30;16.48;;;;;;;1.26;79.20;95680.19;5070904;28;20476;-81
2021/01/31 06:04:26;;;;;;;41.33;15.82;;;;;;;1.64;78.77;95678.94;5041611;28;20063;-81
2021/01/31 06:06:54;;;;;;;36.33;14.75;;;;;;;1.60;78.27;95688.13;5064598;28;20028;-81
2021/01/31 06:09:48;;;;;;;38.88;14.55;;;;;;;1.62;78.22;95698.16;5070617;28;20407;-81
2021/01/31 06:12:21;;;;;;;41.05;16.10;;;;;;;1.55;78.20;95702.63;5057751;28;20029;-81
2021/01/31 06:14:50;;;;;;;41.92;15.43;;;;;;;1.56;78.39;95702.41;5054069;28;20079;-81
2021/01/31 06:17:30;;;;;;;39.10;15.75;;;;;;;1.00;79.61;95703.66;5064370;28;20395;-81
2021/01/31 06:19:59;;;;;;;37.03;14.23;;;;;;;1.43;78.81;95700.06;5051304;28;20037;-81
2021/01/31 06:22:46;;;;;;;38.72;15.18;;;;;;;1.21;79.15;95708.25;5053829;28;20531;-81
2021/01/31 06:25:33;;;;;;;39.92;15.90;;;;;;;1.45;78.89;95700.59;5053524;28;20039;-80
2021/01/31 06:28:08;;;;;;;40.78;15.13;;;;;;;1.65;77.74;95707.97;5064167;28;20043;-80
2021/01/31 06:30:34;;;;;;;44.67;16.33;;;;;;;1.68;78.35;95710.88;5070566;28;20585;-80
2021/01/31 06:33:01;;;;;;;38.88;16.27;;;;;;;1.34;79.45;95709.84;5047024;28;20031;-81
2021/01/31 06:35:26;;;;;;;38.58;15.82;;;;;;;1.50;78.61;95704.06;5063819;28;20123;-81
2021/01/31 06:38:02;;;;;;;37.35;15.07;;;;;;;1.53;78.49;95707.97;5065697;28;20036;-81
2021/01/31 06:40:46;;;;;;;43.38;16.10;;;;;;;1.09;79.76;95721.06;5064016;28;20032;-81
2021/01/31 06:43:18;;;;;;;41.63;16.33;;;;;;;1.27;78.86;95730.47;5052725;28;20032;-81
2021/01/31 06:45:57;;;;;;;38.53;15.43;;;;;;;1.57;78.70;95727.03;5067106;28;20414;-81
2021/01/31 06:49:09;;;;;;;44.78;17.10;;;;;;;1.52;78.12;95718.44;5059975;28;20032;-80
2021/01/31 06:51:51;;;;;;;44.50;16.88;;;;;;;1.78;77.99;95720.56;5013363;28;20057;-80
2021/01/31 06:54:36;;;;;;;40.08;15.52;;;;;;;1.74;77.81;95719.44;4997991;28;20111;-81
2021/01/31 06:57:20;;;;;;;39.50;15.07;;;;;;;1.80;77.92;95718.56;5006239;28;20025;-81
2021/01/31 07:00:17;;;;;;;43.75;16.88;;;;;;;1.08;78.86;95732.31;5023213;28;20049;-81
2021/01/31 07:03:20;;;;;;;39.90;15.93;;;;;;;1.17;79.57;95737.91;5029205;28;20121;-81
2021/01/31 07:05:54;;;;;;;42.55;16.67;;;;;;;1.57;78.23;95742.41;5014304;28;20448;-81
2021/01/31 07:08:29;;;;;;;38.55;16.42;;;;;;;1.94;77.91;95747.34;5020011;28;20072;-81
2021/01/31 07:11:27;;;;;;;42.40;16.75;;;;;;;1.21;79.10;95754.41;5029123;28;20065;-80
2021/01/31 07:14:38;;;;;;;37.63;15.57;;;;;;;1.35;78.75;95752.44;5027929;28;20117;-81
2021/01/31 07:17:22;;;;;;;40.63;16.48;;;;;;;1.51;78.48;95738.19;5195336;22;20075;-82
2021/01/31 07:19:57;;;;;;;37.33;15.73;;;;;;;1.16;79.29;95736.34;5066865;28;20040;-83
2021/01/31 07:22:31;;;;;;;38.50;15.18;;;;;;;1.30;79.19;95732.59;5071510;28;20036;-82
2021/01/31 07:25:09;;;;;;;41.43;16.57;;;;;;;1.17;79.08;95727.66;5054587;28;20051;-82
2021/01/31 07:27:41;;;;;;;39.38;15.80;;;;;;;1.36;78.76;95735.28;5053881;28;20071;-82
2021/01/31 07:30:43;;;;;;;38.50;16.30;;;;;;;1.02;79.19;95725.50;5067898;28;20047;-82
2021/01/31 07:33:20;;;;;;;38.95;14.55;;;;;;;1.27;79.07;95735.59;5034807;28;20044;-82
2021/01/31 07:36:09;;;;;;;40.53;15.23;;;;;;;1.16;79.01;95736.34;5070792;28;20033;-83
2021/01/31 07:38:40;;;;;;;39.22;15.63;;;;;;;0.91;79.66;95733.97;5065858;28;20029;-81
2021/01/31 07:41:06;;;;;;;43.80;16.00;;;;;;;1.43;79.18;95735.94;5070751;28;20268;-82
2021/01/31 07:43:35;;;;;;;43.97;17.70;;;;;;;1.44;78.98;95734.94;5070287;28;20052;-81
2021/01/31 07:46:06;;;;;;;42.20;16.42;;;;;;;1.41;78.91;95745.66;5053730;28;20397;-82
2021/01/31 07:48:40;;;;;;;38.90;16.17;;;;;;;1.00;79.83;95748.00;5052469;28;20021;-81
2021/01/31 07:51:07;;;;;;;40.72;15.48;;;;;;;1.14;79.56;95746.03;5071133;28;20058;-82
2021/01/31 07:53:38;;;;;;;39.08;15.02;;;;;;;1.48;78.61;95759.16;5063411;28;20064;-81
2021/01/31 07:56:26;;;;;;;43.88;19.80;;;;;;;1.22;78.97;95765.47;5070912;28;20020;-82
2021/01/31 07:58:54;;;;;;;43.05;16.20;;;;;;;1.43;78.94;95756.47;5069776;28;20718;-82
2021/01/31 08:01:39;;;;;;;39.20;14.93;;;;;;;1.19;79.15;95776.16;5070026;28;20032;-81
2021/01/31 08:04:16;;;;;;;43.67;18.60;;;;;;;0.87;80.00;95778.94;5072238;28;20032;-83
2021/01/31 08:06:50;;;;;;;49.95;18.95;;;;;;;0.89;79.80;95780.28;5069980;28;20426;-82
2021/01/31 08:09:25;;;;;;;38.83;16.13;;;;;;;0.98;79.66;95785.09;5070738;28;20108;-81
2021/01/31 08:12:08;;;;;;;47.47;19.70;;;;;;;0.90;79.83;95788.75;5065526;28;20317;-83
2021/01/31 08:15:01;;;;;;;43.97;18.63;;;;;;;0.85;80.44;95786.84;5066411;28;20092;-82
2021/01/31 08:17:56;;;;;;;43.03;18.33;;;;;;;0.90;80.28;95786.97;5071572;28;20048;-83
2021/01/31 08:20:27;;;;;;;42.28;17.15;;;;;;;1.22;79.22;95784.19;5067885;28;20036;-83
2021/01/31 08:22:58;;;;;;;45.40;17.25;;;;;;;1.37;78.68;95786.34;5069544;28;20044;-83
2021/01/31 08:25:27;;;;;;;48.63;18.77;;;;;;;1.29;79.26;95787.44;5052530;28;20032;-82
2021/01/31 08:28:01;;;;;;;43.90;16.92;;;;;;;1.31;78.66;95794.91;5069437;28;20383;-82
2021/01/31 08:30:30;;;;;;;;;;;;;;;1.14;79.59;95787.06;5071208;28;20029;-82
2021/01/31 08:33:00;;;;;;;38.28;15.75;;;;;;;1.29;78.77;95782.31;5070151;28;20002;-83
2021/01/31 08:35:38;;;;;;;41.38;16.20;;;;;;;1.29;78.75;95777.19;5069358;28;20453;-81
2021/01/31 08:38:21;;;;;;;38.00;15.60;;;;;;;1.40;77.90;95780.75;5070060;28;20434;-82
2021/01/31 08:40:59;;;;;;;37.05;14.98;;;;;;;1.46;78.00;95782.44;5047536;28;20036;-82
2021/01/31 08:43:35;;;;;;;42.17;16.50;;;;;;;1.29;78.41;95787.44;5069156;28;20119;-83
2021/01/31 08:46:05;;;;;;;43.55;17.67;;;;;;;1.19;78.37;95781.28;5052099;28;20620;-83
2021/01/31 08:48:31;;;;;;;41.33;16.67;;;;;;;1.36;79.01;95789.91;5068283;28;20585;-82
2021/01/31 08:51:13;;;;;;;41.80;16.52;;;;;;;1.45;77.91;95772.41;5070080;28;20506;-82
2021/01/31 08:53:40;;;;;;;40.17;16.65;;;;;;;1.36;78.33;95766.06;5062833;28;20031;-82
2021/01/31 08:56:29;;;;;;;41.00;17.92;;;;;;;1.30;78.66;95776.19;5072717;28;20025;-82
2021/01/31 08:58:55;;;;;;;46.17;19.38;;;;;;;1.79;77.40;95770.88;5072837;28;20044;-82
2021/01/31 09:01:25;;;;;;;43.08;17.45;;;;;;;1.54;77.68;95771.06;5073219;28;20063;-82
2021/01/31 09:03:50;;;;;;;37.65;17.10;;;;;;;1.64;78.00;95768.75;5056109;28;20078;-82
2021/01/31 09:06:17;;;;;;;39.67;18.08;;;;;;;1.88;77.15;95771.31;5055771;28;20036;-81
2021/01/31 09:08:44;;;;;;;38.45;16.50;;;;;;;1.87;77.03;95773.13;5072165;28;20670;-81
2021/01/31 09:11:13;;;;;;;45.22;18.30;;;;;;;1.92;76.85;95779.34;5056102;28;20039;-82
2021/01/31 09:13:39;;;;;;;38.65;18.23;;;;;;;1.96;76.81;95788.19;5040174;28;20032;-81
2021/01/31 09:16:21;;;;;;;39.80;16.35;;;;;;;1.23;78.15;95783.16;5073072;28;20036;-83
2021/01/31 09:18:48;;;;;;;44.75;16.60;;;;;;;1.72;77.66;95790.75;5053921;28;20420;-81
2021/01/31 09:21:25;;;;;;;42.60;19.38;;;;;;;1.61;78.12;95800.00;5069887;28;20040;-81
2021/01/31 09:23:55;;;;;;;39.95;16.70;;;;;;;1.79;77.36;95806.03;5056124;28;20036;-81
2021/01/31 09:26:21;;;;;;;41.67;18.30;;;;;;;1.87;77.08;95803.16;5072715;28;20469;-81
2021/01/31 09:28:47;;;;;;;41.13;17.27;;;;;;;1.88;77.49;95794.41;5056795;28;20029;-82
2021/01/31 09:31:15;;;;;;;43.95;19.40;;;;;;;1.56;77.92;95794.75;5073439;28;20060;-81
2021/01/31 09:33:42;;;;;;;47.00;19.38;;;;;;;1.75;78.21;95794.63;5073306;28;20028;-81
2021/01/31 09:36:25;;;;;;;44.17;17.23;;;;;;;1.65;78.09;95795.97;5073494;28;20529;-81
2021/01/31 09:38:53;;;;;;;45.25;19.55;;;;;;;1.85;77.39;95784.59;5053977;28;20029;-81
2021/01/31 09:41:23;;;;;;;44.08;16.95;;;;;;;1.49;77.92;95783.78;5073428;28;20024;-81
2021/01/31 09:43:54;;;;;;;39.10;15.68;;;;;;;1.78;77.65;95796.75;5068687;28;20498;-82
2021/01/31 09:46:21;;;;;;;39.00;16.90;;;;;;;2.01;77.18;95789.06;5056338;28;20036;-80
2021/01/31 09:48:49;;;;;;;44.40;18.15;;;;;;;2.18;76.49;95773.00;5072791;28;20029;-82
2021/01/31 09:51:24;;;;;;;42.03;16.38;;;;;;;1.80;77.34;95779.34;5071875;28;20044;-81
2021/01/31 09:53:50;;;;;;;43.78;19.05;;;;;;;2.18;77.46;95775.56;5059718;28;20032;-81
2021/01/31 09:56:36;;;;;;;39.80;16.73;;;;;;;1.51;78.75;95776.66;5070123;28;20041;-81
2021/01/31 09:59:02;;;;;;;41.50;18.98;;;;;;;1.94;78.02;95783.28;5072997;28;20414;-81
2021/01/31 10:01:30;;;;;;;46.92;18.50;;;;;;;1.90;77.46;95782.13;5072672;28;20032;-81
2021/01/31 10:03:58;;;;;;;44.03;17.20;;;;;;;2.20;77.12;95791.53;5064253;28;20392;-81
2021/01/31 10:06:25;;;;;;;38.53;17.13;;;;;;;2.06;77.27;95789.19;5072198;28;20064;-82
2021/01/31 10:08:57;;;;;;;43.40;18.10;;;;;;;1.86;77.98;95793.88;5055536;28;20029;-82
2021/01/31 10:11:44;;;;;;;44.47;18.90;;;;;;;1.77;78.27;95792.66;5070205;28;20028;-81
2021/01/31 10:14:11;;;;;;;43.40;18.75;;;;;;;1.73;78.54;95792.31;5067391;28;20035;-82
2021/01/31 10:16:39;;;;;;;37.22;17.65;;;;;;;1.86;78.75;95786.94;5054872;28;20032;-81
2021/01/31 10:19:17;;;;;;;45.88;19.48;;;;;;;1.57;78.80;95785.25;5072459;28;20462;-81
2021/01/31 10:21:46;;;;;;;40.58;17.23;;;;;;;1.87;78.53;95778.25;5072271;28;20475;-81
2021/01/31 10:24:34;;;;;;;41.60;18.25;;;;;;;1.71;78.96;95776.34;5072363;28;20032;-82
2021/01/31 10:27:07;;;;;;;52.83;20.80;;;;;;;1.89;78.50;95785.72;5072278;28;20420;-81
2021/01/31 10:29:33;;;;;;;44.97;18.70;;;;;;;1.78;78.61;95777.03;5066792;28;20544;-82
2021/01/31 10:32:21;;;;;;;42.33;16.75;;;;;;;1.90;78.73;95781.38;5055464;28;20032;-81
2021/01/31 10:34:51;;;;;;;40.38;18.00;;;;;;;1.78;78.73;95776.22;5037872;28;20372;-81
2021/01/31 10:37:19;;;;;;;49.45;18.80;;;;;;;2.01;78.57;95772.91;5071536;28;20028;-81
2021/01/31 10:39:47;;;;;;;46.58;17.70;;;;;;;2.39;77.51;95780.09;5069182;28;20025;-80
2021/01/31 10:42:16;;;;;;;50.28;19.45;;;;;;;2.54;77.20;95781.41;5067989;28;20361;-80
2021/01/31 10:44:42;;;;;;;48.65;19.35;;;;;;;2.47;77.28;95773.03;5070852;28;20024;-81
2021/01/31 10:47:07;;;;;;;44.63;17.58;;;;;;;2.46;77.48;95767.13;5038838;28;20510;-81
2021/01/31 10:49:33;;;;;;;45.65;18.42;;;;;;;2.56;77.17;95769.88;5053254;28;20032;-81
2021/01/31 10:51:59;;;;;;;41.17;17.02;;;;;;;2.54;76.97;95758.28;5071179;28;20029;-81
2021/01/31 10:54:25;;;;;;;38.05;16.67;;;;;;;2.55;77.13;95763.22;5057549;28;20060;-80
2021/01/31 10:56:51;;;;;;;42.05;15.93;;;;;;;2.56;77.20;95763.97;5034806;28;20282;-80
2021/01/31 10:59:17;;;;;;;39.83;16.60;;;;;;;2.29;78.11;95764.47;5071598;28;20107;-82
2021/01/31 11:01:47;;;;;;;41.55;16.42;;;;;;;2.18;78.06;95765.28;5071730;28;20201;-81
2021/01/31 11:04:19;;;;;;;40.03;17.75;;;;;;;2.28;78.52;95757.78;5070361;28;20309;-81
2021/01/31 11:06:45;;;;;;;38.25;16.60;;;;;;;2.59;77.36;95750.69;5053057;28;20032;-80
2021/01/31 11:09:11;;;;;;;39.00;17.20;;;;;;;2.36;77.86;95743.81;5070049;28;20117;-81
2021/01/31 11:11:38;;;;;;;37.17;16.27;;;;;;;2.40;77.65;95745.69;5070283;28;20032;-81
2021/01/31 11:14:08;;;;;;;41.33;16.60;;;;;;;2.45;77.41;95747.59;5070447;28;20036;-81
2021/01/31 11:16:33;;;;;;;37.83;16.52;;;;;;;2.61;77.27;95740.94;5053134;28;20039;-80
2021/01/31 11:19:00;;;;;;;38.10;17.10;;;;;;;2.48;77.19;95743.78;5069380;28;20040;-80
2021/01/31 11:21:26;;;;;;;41.38;17.10;;;;;;;2.23;78.04;95748.19;5067581;28;20045;-81
2021/01/31 11:23:54;;;;;;;41.28;17.33;;;;;;;2.46;77.90;95753.50;5055394;28;20045;-81
2021/01/31 11:26:21;;;;;;;36.83;15.60;;;;;;;2.32;77.88;95748.63;5053818;28;20039;-81
2021/01/31 11:28:47;;;;;;;38.58;15.88;;;;;;;2.35;78.19;95743.03;5041538;28;20429;-81
2021/01/31 11:31:13;;;;;;;41.75;16.80;;;;;;;2.38;78.05;95746.94;5055147;28;20120;-80
2021/01/31 11:33:39;;;;;;;38.85;16.20;;;;;;;2.31;78.02;95746.28;5068597;28;20029;-81
2021/01/31 11:36:05;;;;;;;41.20;16.75;;;;;;;2.41;78.29;95749.81;5053469;28;20032;-81
2021/01/31 11:38:32;;;;;;;38.50;16.70;;;;;;;2.59;77.66;95743.75;5071733;28;20056;-80
2021/01/31 11:40:58;;;;;;;38.67;16.13;;;;;;;2.27;78.57;95740.03;5071112;28;20039;-80
2021/01/31 11:43:23;;;;;;;41.33;17.40;;;;;;;2.38;78.69;95737.44;5049953;28;20467;-81
2021/01/31 11:45:50;;;;;;;55.00;21.45;;;;;;;2.76;77.54;95730.16;5070980;28;20032;-80
2021/01/31 11:48:16;;;;;;;43.65;18.65;;;;;;;2.81;77.24;95736.19;5071499;28;20386;-80
2021/01/31 11:50:41;;;;;;;37.75;16.05;;;;;;;2.70;77.14;95737.00;5073465;28;20064;-80
2021/01/31 11:53:07;;;;;;;43.75;18.35;;;;;;;2.72;77.38;95737.53;5073581;28;20063;-81